createdAt,value
2018-03-31T00:03:02.418Z,5.91
2018-03-31T00:06:05.029Z,5.88
2018-03-31T00:09:08.286Z,5.90
2018-03-31T00:12:10.796Z,5.92
2018-03-31T00:15:14.364Z,5.95
2018-03-31T00:18:16.878Z,5.96
2018-03-31T00:21:20.141Z,5.98
2018-03-31T00:24:22.630Z,5.98
2018-03-31T00:27:25.110Z,5.94
2018-03-31T00:30:27.590Z,6.01
2018-03-31T00:33:30.061Z,5.94
2018-03-31T00:36:32.545Z,5.91
2018-03-31T00:39:35.030Z,5.91
2018-03-31T00:42:37.514Z,5.93
2018-03-31T00:45:40.025Z,5.92
2018-03-31T00:48:42.550Z,5.97
2018-03-31T00:51:45.950Z,5.95
2018-03-31T00:54:48.464Z,5.91
2018-03-31T00:58:00.261Z,5.87
2018-03-31T01:01:02.777Z,5.94
2018-03-31T01:04:05.267Z,5.91
2018-03-31T01:07:07.761Z,5.96
2018-03-31T01:10:10.470Z,5.93
2018-03-31T01:13:12.980Z,6.04
2018-03-31T01:16:15.484Z,5.98
2018-03-31T01:19:18.116Z,5.94
2018-03-31T01:22:20.592Z,5.94
2018-03-31T01:25:23.981Z,5.90
2018-03-31T01:28:26.456Z,5.93
2018-03-31T01:31:28.958Z,5.89
2018-03-31T01:34:32.250Z,5.83
2018-03-31T01:37:34.779Z,5.82
2018-03-31T01:40:37.265Z,5.73
2018-03-31T01:43:39.745Z,5.80
2018-03-31T01:46:42.225Z,5.89
2018-03-31T01:49:44.703Z,5.93
2018-03-31T01:52:47.182Z,5.84
2018-03-31T01:55:49.664Z,5.83
2018-03-31T01:58:52.124Z,5.90
2018-03-31T02:01:54.617Z,5.82
2018-03-31T02:04:57.093Z,5.83
2018-03-31T02:08:00.130Z,5.75
2018-03-31T02:11:03.430Z,5.84
2018-03-31T02:14:06.677Z,5.83
2018-03-31T02:17:09.192Z,5.73
2018-03-31T02:20:11.660Z,5.64
2018-03-31T02:23:14.136Z,5.59
2018-03-31T02:26:16.645Z,5.63
2018-03-31T02:29:19.892Z,5.51
2018-03-31T02:32:22.396Z,5.61
2018-03-31T02:35:24.890Z,5.69
2018-03-31T02:38:28.138Z,5.68
2018-03-31T02:41:30.621Z,5.54
2018-03-31T02:44:33.096Z,5.65
2018-03-31T02:47:35.565Z,5.68
2018-03-31T02:50:38.046Z,5.70
2018-03-31T02:53:40.541Z,5.66
2018-03-31T02:56:43.017Z,5.61
2018-03-31T02:59:45.533Z,5.65
2018-03-31T03:02:48.006Z,5.63
2018-03-31T03:05:50.490Z,5.55
2018-03-31T03:08:53.746Z,5.54
2018-03-31T03:11:56.286Z,5.55
2018-03-31T03:14:59.544Z,5.52
2018-03-31T03:18:02.032Z,5.53
2018-03-31T03:21:04.508Z,5.45
2018-03-31T03:24:06.985Z,5.57
2018-03-31T03:27:09.482Z,5.43
2018-03-31T03:30:13.620Z,5.43
2018-03-31T03:33:16.104Z,5.48
2018-03-31T03:36:18.581Z,5.47
2018-03-31T03:39:21.045Z,5.44
2018-03-31T03:42:24.316Z,5.55
2018-03-31T03:45:26.776Z,5.58
2018-03-31T03:48:29.257Z,5.62
2018-03-31T03:51:31.733Z,5.64
2018-03-31T03:54:34.208Z,5.49
2018-03-31T03:57:36.682Z,5.62
2018-03-31T04:00:39.148Z,5.60
2018-03-31T04:03:41.651Z,5.58
2018-03-31T04:06:44.152Z,5.55
2018-03-31T04:09:47.386Z,5.52
2018-03-31T04:12:49.888Z,5.51
2018-03-31T04:15:52.377Z,5.51
2018-03-31T04:18:54.913Z,5.46
2018-03-31T04:21:57.381Z,5.54
2018-03-31T04:25:00.617Z,5.34
2018-03-31T04:28:03.141Z,5.34
2018-03-31T04:31:05.636Z,5.27
2018-03-31T04:34:08.880Z,5.40
2018-03-31T04:37:11.354Z,5.32
2018-03-31T04:40:13.834Z,5.22
2018-03-31T04:43:16.353Z,5.19
2018-03-31T04:46:18.808Z,5.07
2018-03-31T04:49:21.313Z,5.12
2018-03-31T04:52:24.557Z,5.04
2018-03-31T04:55:27.033Z,5.07
2018-03-31T04:58:29.517Z,4.95
2018-03-31T05:01:31.999Z,4.81
2018-03-31T05:04:35.238Z,4.85
2018-03-31T05:07:38.484Z,4.92
2018-03-31T05:10:40.957Z,5.05
2018-03-31T05:13:43.448Z,5.04
2018-03-31T05:16:45.931Z,5.04
2018-03-31T05:19:48.412Z,4.90
2018-03-31T05:22:51.664Z,4.91
2018-03-31T05:25:54.144Z,5.01
2018-03-31T05:28:56.612Z,4.98
2018-03-31T05:31:59.851Z,5.02
2018-03-31T05:35:02.632Z,4.99
2018-03-31T05:38:05.118Z,4.93
2018-03-31T05:41:07.593Z,4.90
2018-03-31T05:44:10.078Z,4.79
2018-03-31T05:47:12.634Z,4.92
2018-03-31T05:50:15.108Z,4.99
2018-03-31T05:53:17.689Z,4.80
2018-03-31T05:56:20.252Z,4.93
2018-03-31T05:59:23.492Z,5.06
2018-03-31T06:02:25.974Z,5.18
2018-03-31T06:05:28.449Z,5.25
2018-03-31T06:08:30.918Z,5.14
2018-03-31T06:11:33.415Z,5.10
2018-03-31T06:14:35.889Z,5.12
2018-03-31T06:17:38.373Z,5.03
2018-03-31T06:20:40.865Z,4.76
2018-03-31T06:23:43.343Z,4.92
2018-03-31T06:26:46.028Z,4.96
2018-03-31T06:29:48.509Z,4.80
2018-03-31T06:32:50.989Z,4.87
2018-03-31T06:35:53.461Z,4.84
2018-03-31T06:38:55.940Z,5.15
2018-03-31T06:41:58.460Z,5.22
2018-03-31T06:45:01.704Z,5.21
2018-03-31T06:48:04.192Z,5.03
2018-03-31T06:51:06.686Z,4.79
2018-03-31T06:54:09.155Z,4.78
2018-03-31T06:57:11.649Z,4.88
2018-03-31T07:00:14.152Z,4.78
2018-03-31T07:03:18.161Z,4.78
2018-03-31T07:06:20.645Z,4.62
2018-03-31T07:09:23.136Z,4.63
2018-03-31T07:12:26.402Z,4.79
2018-03-31T07:15:30.460Z,4.85
2018-03-31T07:18:32.922Z,4.82
2018-03-31T07:21:36.254Z,4.79
2018-03-31T07:24:38.748Z,4.98
2018-03-31T07:27:42.207Z,5.14
2018-03-31T07:30:45.238Z,4.92
2018-03-31T07:33:47.756Z,5.02
2018-03-31T07:36:50.597Z,5.04
2018-03-31T07:39:53.101Z,5.06
2018-03-31T07:42:56.079Z,4.72
2018-03-31T07:45:58.662Z,5.07
2018-03-31T07:49:01.713Z,5.40
2018-03-31T07:52:04.507Z,5.45
2018-03-31T07:55:08.192Z,5.45
2018-03-31T07:58:21.096Z,5.31
2018-03-31T08:01:24.821Z,5.49
2018-03-31T08:04:27.358Z,5.42
2018-03-31T08:07:29.836Z,5.54
2018-03-31T08:10:32.320Z,5.61
2018-03-31T08:13:34.817Z,5.88
2018-03-31T08:16:37.314Z,6.08
2018-03-31T08:19:39.789Z,5.99
2018-03-31T08:22:42.368Z,6.28
2018-03-31T08:25:44.950Z,6.33
2018-03-31T08:28:47.430Z,5.92
2018-03-31T08:31:50.024Z,5.82
2018-03-31T08:34:54.017Z,5.77
2018-03-31T08:37:56.492Z,6.15
2018-03-31T08:40:58.985Z,6.41
2018-03-31T08:44:01.466Z,6.45
2018-03-31T08:47:04.046Z,6.23
2018-03-31T08:50:07.238Z,6.36
2018-03-31T08:53:09.722Z,6.67
2018-03-31T08:56:12.355Z,6.79
2018-03-31T08:59:15.032Z,7.23
2018-03-31T09:02:18.304Z,7.06
2018-03-31T09:05:20.802Z,7.13
2018-03-31T09:08:25.066Z,7.16
2018-03-31T09:11:27.556Z,7.88
2018-03-31T09:14:30.818Z,7.52
2018-03-31T09:20:41.240Z,7.86
2018-03-31T09:23:43.775Z,8.29
2018-03-31T09:26:47.014Z,7.88
2018-03-31T09:29:49.495Z,7.97
2018-03-31T09:32:51.984Z,7.99
2018-03-31T09:35:54.457Z,7.96
2018-03-31T09:38:56.988Z,7.72
2018-03-31T09:42:00.321Z,7.85
2018-03-31T09:45:02.838Z,7.51
2018-03-31T09:48:18.408Z,7.42
2018-03-31T09:51:23.548Z,7.31
2018-03-31T09:54:26.029Z,7.11
2018-03-31T09:57:28.496Z,7.10
2018-03-31T10:00:35.802Z,7.16
2018-03-31T10:03:38.327Z,7.18
2018-03-31T10:06:40.898Z,7.27
2018-03-31T10:09:44.299Z,7.13
2018-03-31T10:12:47.574Z,7.02
2018-03-31T10:15:50.037Z,7.26
2018-03-31T10:18:52.518Z,7.72
2018-03-31T10:21:55.022Z,7.90
2018-03-31T10:24:57.513Z,8.22
2018-03-31T10:28:00.298Z,8.19
2018-03-31T10:31:02.777Z,7.12
2018-03-31T10:34:06.026Z,7.00
2018-03-31T10:37:08.550Z,7.18
2018-03-31T10:40:11.816Z,7.56
2018-03-31T10:43:14.414Z,7.33
2018-03-31T10:46:17.025Z,6.89
2018-03-31T10:49:19.528Z,6.88
2018-03-31T10:52:22.014Z,7.31
2018-03-31T10:55:25.281Z,7.98
2018-03-31T10:58:27.757Z,8.27
2018-03-31T11:01:30.221Z,8.32
2018-03-31T11:04:32.701Z,7.88
2018-03-31T11:07:35.173Z,7.73
2018-03-31T11:10:38.432Z,7.54
2018-03-31T11:13:40.921Z,7.29
2018-03-31T11:16:43.453Z,7.36
2018-03-31T11:19:45.924Z,7.66
2018-03-31T11:22:48.410Z,7.09
2018-03-31T11:25:50.906Z,7.32
2018-03-31T11:28:53.373Z,7.88
2018-03-31T11:31:55.892Z,8.11
2018-03-31T11:34:58.385Z,7.22
2018-03-31T11:38:00.892Z,7.04
2018-03-31T11:41:03.372Z,6.93
2018-03-31T11:44:05.845Z,6.73
2018-03-31T11:47:08.329Z,6.78
2018-03-31T11:50:10.818Z,6.82
2018-03-31T11:53:13.328Z,6.87
2018-03-31T11:56:15.801Z,6.94
2018-03-31T11:59:18.307Z,7.06
2018-03-31T12:02:20.773Z,7.00
2018-03-31T12:05:23.484Z,7.72
2018-03-31T12:08:27.811Z,8.08
2018-03-31T12:11:30.269Z,8.09
2018-03-31T12:14:32.750Z,7.73
2018-03-31T12:17:35.218Z,7.63
2018-03-31T12:20:37.697Z,7.59
2018-03-31T12:23:41.052Z,7.89
2018-03-31T12:26:43.556Z,7.64
2018-03-31T12:30:00.090Z,8.03
2018-03-31T12:33:03.756Z,8.51
2018-03-31T12:36:06.249Z,8.33
2018-03-31T12:39:08.754Z,8.99
2018-03-31T12:42:11.229Z,8.49
2018-03-31T12:45:13.700Z,8.49
2018-03-31T12:48:16.180Z,8.58
2018-03-31T12:51:18.696Z,8.65
2018-03-31T12:54:21.954Z,8.68
2018-03-31T12:57:24.497Z,8.49
2018-03-31T13:00:26.921Z,9.08
2018-03-31T13:03:29.408Z,9.67
2018-03-31T13:06:31.870Z,9.54
2018-03-31T13:09:34.346Z,9.63
2018-03-31T13:12:36.813Z,8.69
2018-03-31T13:15:39.328Z,8.39
2018-03-31T13:18:41.802Z,8.27
2018-03-31T13:21:44.280Z,8.15
2018-03-31T13:24:46.792Z,8.11
2018-03-31T13:27:50.038Z,8.27
2018-03-31T13:30:52.525Z,8.15
2018-03-31T13:33:54.992Z,7.98
2018-03-31T13:36:57.478Z,8.07
2018-03-31T13:39:59.952Z,8.42
2018-03-31T13:43:02.430Z,8.83
2018-03-31T13:46:04.994Z,8.89
2018-03-31T13:49:07.486Z,8.74
2018-03-31T13:52:09.973Z,9.07
2018-03-31T13:55:13.225Z,9.07
2018-03-31T13:58:16.504Z,9.10
2018-03-31T14:01:18.974Z,9.02
2018-03-31T14:04:21.469Z,9.04
2018-03-31T14:07:24.818Z,9.05
2018-03-31T14:10:27.287Z,9.07
2018-03-31T14:13:29.785Z,9.14
2018-03-31T14:16:32.273Z,8.85
2018-03-31T14:19:34.898Z,9.00
2018-03-31T14:22:38.125Z,8.91
2018-03-31T14:25:40.605Z,8.94
2018-03-31T14:28:43.099Z,9.19
2018-03-31T14:31:45.853Z,9.46
2018-03-31T14:34:52.115Z,9.86
2018-03-31T14:37:55.340Z,8.99
2018-03-31T14:40:57.822Z,9.10
2018-03-31T14:44:00.288Z,9.54
2018-03-31T14:47:02.812Z,9.50
2018-03-31T14:50:05.996Z,9.49
2018-03-31T14:53:08.451Z,9.17
2018-03-31T14:56:11.285Z,9.06
2018-03-31T14:59:13.765Z,9.00
2018-03-31T15:02:17.019Z,9.04
2018-03-31T15:05:19.521Z,8.77
2018-03-31T15:08:21.989Z,8.62
2018-03-31T15:11:24.504Z,8.47
2018-03-31T15:14:27.745Z,8.63
2018-03-31T15:17:30.238Z,8.75
2018-03-31T15:20:32.730Z,8.95
2018-03-31T15:23:35.197Z,8.79
2018-03-31T15:26:37.749Z,8.87
2018-03-31T15:29:40.970Z,8.76
2018-03-31T15:32:43.560Z,8.78
2018-03-31T15:35:46.074Z,8.58
2018-03-31T15:38:49.384Z,8.78
2018-03-31T15:41:52.644Z,9.03
2018-03-31T15:44:55.183Z,8.84
2018-03-31T15:47:57.646Z,8.55
2018-03-31T15:51:00.141Z,8.43
2018-03-31T15:54:02.629Z,8.53
2018-03-31T15:57:05.107Z,8.57
2018-03-31T16:00:07.606Z,8.41
2018-03-31T16:03:10.079Z,8.31
2018-03-31T16:06:12.818Z,8.26
2018-03-31T16:09:16.065Z,8.26
2018-03-31T16:12:18.680Z,8.24
2018-03-31T16:15:21.938Z,8.22
2018-03-31T16:18:24.483Z,8.10
2018-03-31T16:21:27.726Z,7.81
2018-03-31T16:24:31.391Z,7.75
2018-03-31T16:27:33.893Z,7.82
2018-03-31T16:30:36.436Z,7.78
2018-03-31T16:33:39.698Z,7.71
2018-03-31T16:36:42.214Z,7.68
2018-03-31T16:39:45.443Z,7.68
2018-03-31T16:42:48.035Z,7.69
2018-03-31T16:45:50.673Z,7.68
2018-03-31T16:48:53.908Z,7.66
2018-03-31T16:51:56.435Z,7.62
2018-03-31T16:54:59.746Z,7.63
2018-03-31T16:58:02.992Z,7.59
2018-03-31T17:07:48.737Z,7.44
2018-03-31T17:10:51.205Z,7.46
2018-03-31T17:13:53.694Z,7.43
2018-03-31T17:16:56.212Z,7.42
2018-03-31T17:19:59.479Z,7.38
2018-03-31T17:23:01.953Z,7.33
2018-03-31T17:26:04.436Z,7.31
2018-03-31T17:29:06.909Z,7.39
2018-03-31T17:32:09.430Z,7.33
2018-03-31T17:35:12.697Z,7.30
2018-03-31T17:38:15.232Z,7.25
2018-03-31T17:41:17.718Z,7.21
2018-03-31T17:44:20.192Z,7.24
2018-03-31T17:47:22.667Z,7.21
2018-03-31T17:50:25.388Z,7.20
2018-03-31T17:53:27.910Z,7.25
2018-03-31T17:56:30.489Z,7.18
2018-03-31T17:59:32.968Z,7.17
2018-03-31T18:02:36.249Z,7.18
2018-03-31T18:05:39.563Z,7.14
2018-03-31T18:08:42.802Z,7.14
2018-03-31T18:11:45.269Z,7.10
2018-03-31T18:14:47.749Z,7.07
2018-03-31T18:17:50.230Z,7.05
2018-03-31T18:20:52.773Z,7.05
2018-03-31T18:23:56.022Z,7.02
2018-03-31T18:26:58.504Z,6.98
2018-03-31T18:30:00.984Z,6.96
2018-03-31T18:33:03.460Z,6.96
2018-03-31T18:36:06.978Z,6.88
2018-03-31T18:39:09.469Z,6.90
2018-03-31T18:42:11.945Z,6.83
2018-03-31T18:45:14.506Z,6.77
2018-03-31T18:48:17.737Z,6.77
2018-03-31T18:51:20.991Z,6.74
2018-03-31T18:54:23.501Z,6.69
2018-03-31T18:57:26.757Z,6.65
2018-03-31T19:00:29.244Z,6.65
2018-03-31T19:03:32.520Z,6.65
2018-03-31T19:06:35.018Z,6.54
2018-03-31T19:09:37.643Z,6.48
2018-03-31T19:12:40.979Z,6.44
2018-03-31T19:15:43.546Z,6.40
2018-03-31T19:18:46.031Z,6.36
2018-03-31T19:21:48.549Z,6.34
2018-03-31T19:24:56.641Z,6.24
2018-03-31T19:27:59.141Z,6.25
2018-03-31T19:31:02.506Z,6.22
2018-03-31T19:34:05.025Z,6.11
2018-03-31T19:37:07.584Z,6.07
2018-03-31T19:40:11.369Z,6.07
2018-03-31T19:43:15.097Z,6.05
2018-03-31T19:46:17.658Z,6.06
2018-03-31T19:49:20.892Z,5.96
2018-03-31T19:52:23.814Z,5.93
2018-03-31T19:55:26.284Z,5.93
2018-03-31T19:58:28.779Z,5.84
2018-03-31T20:01:32.082Z,5.84
2018-03-31T20:04:35.887Z,5.79
2018-03-31T20:07:38.377Z,5.79
2018-03-31T20:10:41.719Z,5.75
2018-03-31T20:13:44.209Z,5.70
2018-03-31T20:16:46.685Z,5.69
2018-03-31T20:19:49.184Z,5.73
2018-03-31T20:22:51.670Z,5.70
2018-03-31T20:25:54.173Z,5.73
2018-03-31T20:28:57.479Z,5.76
2018-03-31T20:31:59.972Z,5.73
2018-03-31T20:35:02.474Z,5.73
2018-03-31T20:38:05.022Z,5.72
2018-03-31T20:41:07.538Z,5.64
2018-03-31T20:44:10.016Z,5.68
2018-03-31T20:47:12.486Z,5.74
2018-03-31T20:50:15.013Z,5.73
2018-03-31T20:53:18.342Z,5.72
2018-03-31T20:56:20.855Z,5.63
2018-03-31T20:59:23.368Z,5.67
2018-03-31T21:02:26.632Z,5.68
2018-03-31T21:05:30.677Z,5.73
2018-03-31T21:08:33.161Z,5.72
2018-03-31T21:11:35.642Z,5.72
2018-03-31T21:14:38.214Z,5.74
2018-03-31T21:17:41.378Z,5.75
2018-03-31T21:20:46.062Z,5.78
2018-03-31T21:23:48.677Z,5.75
2018-03-31T21:26:52.289Z,5.82
2018-03-31T21:29:54.777Z,5.76
2018-03-31T21:32:57.542Z,5.87
2018-03-31T21:36:15.507Z,5.81
2018-03-31T21:46:19.264Z,5.82
2018-03-31T21:49:22.135Z,5.81
2018-03-31T21:52:25.779Z,5.74
2018-03-31T21:55:28.262Z,5.69
2018-03-31T21:58:30.809Z,5.71
2018-03-31T22:01:33.880Z,5.73
2018-03-31T22:04:37.394Z,5.71
2018-03-31T22:07:40.792Z,5.70
2018-03-31T22:10:44.069Z,5.73
2018-03-31T22:13:52.047Z,5.63
2018-03-31T22:17:02.034Z,5.58
2018-03-31T22:20:06.505Z,5.50
2018-03-31T22:23:08.995Z,5.48
2018-03-31T22:26:11.479Z,5.42
2018-03-31T22:29:13.958Z,5.38
2018-03-31T22:32:16.571Z,5.36
2018-03-31T22:35:19.848Z,5.41
2018-03-31T22:38:22.522Z,5.33
2018-03-31T22:41:25.005Z,5.26
2018-03-31T22:44:27.620Z,5.20
2018-03-31T22:47:30.214Z,5.17
2018-03-31T22:50:32.996Z,5.11
2018-03-31T22:53:37.469Z,5.10
2018-03-31T22:56:39.966Z,4.95
2018-03-31T22:59:42.488Z,4.97
2018-03-31T23:02:45.445Z,4.99
2018-03-31T23:05:47.966Z,4.94
2018-03-31T23:08:51.272Z,4.90
2018-03-31T23:11:54.949Z,4.88
2018-03-31T23:14:57.429Z,4.87
2018-03-31T23:18:00.129Z,4.90
2018-03-31T23:21:03.377Z,4.91
2018-03-31T23:24:05.857Z,4.95
2018-03-31T23:27:08.468Z,4.95
2018-03-31T23:30:11.021Z,4.94
2018-03-31T23:33:14.232Z,4.93
2018-03-31T23:36:17.028Z,4.94
2018-03-31T23:39:19.713Z,4.92
2018-03-31T23:42:22.266Z,4.89
2018-03-31T23:45:26.418Z,4.80
2018-03-31T23:48:29.026Z,4.76
2018-03-31T23:51:32.298Z,4.72
2018-03-31T23:54:34.772Z,4.68
2018-03-31T23:57:37.312Z,4.63
